Euskara    
Meteorología y climatología de Navarra
Datos de la estación - Meteo Navarra

Estación de Gorramendi GN

Altitud 1071 m.


Datos desde el 23/02/2021 hasta el 24/02/2021 en horario solar
Los datos son PROVISIONALES

Anterior Página 1 de 1 Siguiente Descargar: Formato para Excel 2000 o superior   Formato csv   Formato para OpenOffice Calc
Fecha Temperatura Humedad relativa Radiación global Insolación Precipitación Vel. viento 10 m Vel. viento 10 m Dir. viento 10 m
°C % W/m² s l/m² m/s km/h °
23/02/2021 0:00 5.5 79 0.0 0 0.0 14.5 52.3 178
23/02/2021 0:10 5.4 77 0.0 0 0.0 14.0 50.4 172
23/02/2021 0:20 5.7 75 0.0 0 0.0 14.8 53.1 171
23/02/2021 0:30 5.8 75 0.0 0 0.0 14.1 50.9 173
23/02/2021 0:40 6.1 74 0.0 0 0.0 14.7 53.0 179
23/02/2021 0:50 6.3 72 0.0 0 0.0 15.6 56.2 185
23/02/2021 1:00 6.5 70 0.0 0 0.0 14.4 51.9 184
23/02/2021 1:10 6.4 70 0.0 0 0.0 15.3 55.2 181
23/02/2021 1:20 6.5 71 0.0 0 0.0 15.5 55.8 178
23/02/2021 1:30 6.1 74 0.0 0 0.0 15.6 56.2 177
23/02/2021 1:40 6.1 72 0.0 0 0.0 15.6 56.2 183
23/02/2021 1:50 5.7 75 0.0 0 0.0 13.2 47.4 181
23/02/2021 2:00 5.6 76 0.0 0 0.0 13.6 49.1 183
23/02/2021 2:10 5.5 76 0.0 0 0.0 13.0 46.7 181
23/02/2021 2:20 5.5 75 0.0 0 0.0 14.1 50.6 181
23/02/2021 2:30 5.4 76 0.0 0 0.0 13.1 47.2 182
23/02/2021 2:40 5.4 76 0.0 0 0.0 11.6 41.7 182
23/02/2021 2:50 5.2 78 0.0 0 0.0 9.7 35.0 178
23/02/2021 3:00 5.1 79 0.0 0 0.0 9.7 34.8 182
23/02/2021 3:10 4.8 81 0.0 0 0.0 9.2 33.0 187
23/02/2021 3:20 4.8 83 0.0 0 0.0 9.5 34.1 195
23/02/2021 3:30 4.5 84 0.0 0 0.0 8.1 29.2 187
23/02/2021 3:40 4.5 85 0.0 0 0.0 7.0 25.3 195
23/02/2021 3:50 4.4 86 0.0 0 0.0 5.4 19.4 193
23/02/2021 4:00 4.5 85 0.0 0 0.0 7.0 25.2 187
23/02/2021 4:10 4.5 85 0.0 0 0.0 7.1 25.5 199
23/02/2021 4:20 4.5 86 0.0 0 0.0 9.8 35.2 189
23/02/2021 4:30 4.2 89 0.0 0 0.0 8.5 30.7 190
23/02/2021 4:40 4.2 90 0.0 0 0.0 8.3 29.8 199
23/02/2021 4:50 4.2 91 0.0 0 0.0 8.4 30.3 193
23/02/2021 5:00 4.2 92 0.0 0 0.0 10.1 36.2 197
23/02/2021 5:10 4.2 92 0.0 0 0.0 10.9 39.3 189
23/02/2021 5:20 4.1 92 0.0 0 0.0 11.7 42.3 189
23/02/2021 5:30 4.2 93 0.0 0 0.0 12.1 43.4 192
23/02/2021 5:40 4.2 93 0.0 0 0.0 11.7 42.1 197
23/02/2021 5:50 4.2 94 0.0 0 0.0 10.0 36.0 202
23/02/2021 6:00 4.2 93 0.0 0 0.0 9.7 35.0 198
23/02/2021 6:10 4.3 92 0.0 0 0.0 9.1 32.7 199
23/02/2021 6:20 4.0 93 0.0 0 0.0 9.7 34.7 205
23/02/2021 6:30 3.9 94 0.0 0 0.0 10.3 37.1 199
23/02/2021 6:40 4.2 90 0.0 0 0.0 12.2 43.8 195
23/02/2021 6:50 4.4 89 0.0 0 0.0 12.1 43.5 199
23/02/2021 7:00 5.0 85 0.0 0 0.0 14.3 51.3 191
23/02/2021 7:10 4.9 87 13.7 0 0.0 15.2 54.8 187
23/02/2021 7:20 4.4 90 22.8 0 0.0 16.9 61.0 186
23/02/2021 7:30 4.4 91 31.0 0 0.0 18.8 67.8 183
23/02/2021 7:40 4.6 90 51.9 126 0.0 15.3 55.0 186
23/02/2021 7:50 4.6 91 78.3 222 0.0 13.2 47.5 191
23/02/2021 8:00 4.6 91 115.8 338 0.0 13.3 48.0 192
23/02/2021 8:10 4.7 90 98.7 168 0.0 15.1 54.5 188
23/02/2021 8:20 4.9 89 137.9 298 0.0 17.3 62.4 181
23/02/2021 8:30 5.1 89 195.3 310 0.0 19.0 68.5 185
23/02/2021 8:40 5.4 87 126.0 108 0.0 18.9 68.0 183
23/02/2021 8:50 5.5 86 130.0 88 0.0 18.5 66.6 181
23/02/2021 9:00 5.8 85 188.0 210 0.0 19.4 69.7 181
23/02/2021 9:10 5.8 86 188.1 172 0.0 18.4 66.1 183
23/02/2021 9:20 5.9 85 225.1 232 0.0 18.5 66.7 186
23/02/2021 9:30 6.0 83 276.5 262 0.0 19.9 71.6 185
23/02/2021 9:40 5.9 84 242.4 228 0.0 18.7 67.5 190
23/02/2021 9:50 6.1 83 317.7 286 0.0 18.4 66.3 186
23/02/2021 10:00 5.9 83 283.0 240 0.0 17.7 63.8 189
23/02/2021 10:10 6.1 84 316.4 274 0.0 16.7 60.2 189
23/02/2021 10:20 6.3 84 400.2 380 0.0 16.6 59.8 190
23/02/2021 10:30 6.4 83 269.1 170 0.0 15.1 54.3 189
23/02/2021 10:40 6.7 82 308.0 250 0.0 14.5 52.2 181
23/02/2021 10:50 6.9 81 460.2 396 0.0 17.6 63.4 177
23/02/2021 11:00 6.8 82 443.8 380 0.0 17.1 61.4 177
23/02/2021 11:10 6.9 81 368.7 248 0.0 17.3 62.4 177
23/02/2021 11:20 6.9 81 349.5 236 0.0 16.3 58.8 179
23/02/2021 11:30 7.2 80 508.6 406 0.0 17.5 63.1 176
23/02/2021 11:40 7.5 77 551.3 454 0.0 18.7 67.2 177
23/02/2021 11:50 7.5 78 555.7 446 0.0 17.9 64.3 177
23/02/2021 12:00 7.7 77 598.8 486 0.0 17.4 62.5 178
23/02/2021 12:10 7.8 75 631.4 524 0.0 16.8 60.5 175
23/02/2021 12:20 8.1 74 629.1 534 0.0 16.5 59.3 180
23/02/2021 12:30 8.2 73 623.1 538 0.0 17.5 63.1 176
23/02/2021 12:40 8.2 73 560.4 456 0.0 15.5 55.7 178
23/02/2021 12:50 8.4 72 668.9 594 0.0 16.9 61.0 179
23/02/2021 13:00 8.5 71 647.1 586 0.0 16.8 60.6 180
23/02/2021 13:10 8.8 70 633.7 566 0.0 15.0 53.9 182
23/02/2021 13:20 8.8 68 591.2 544 0.0 19.0 68.4 179
23/02/2021 13:30 8.8 69 620.9 598 0.0 19.4 69.7 180
23/02/2021 13:40 8.9 67 609.9 600 0.0 18.8 67.7 168
23/02/2021 13:50 8.9 66 590.8 600 0.0 19.9 71.6 176
23/02/2021 14:00 9.1 65 571.5 600 0.0 19.1 68.8 171
23/02/2021 14:10 9.0 64 554.8 600 0.0 19.7 70.8 173
23/02/2021 14:20 9.1 65 531.3 600 0.0 18.7 67.4 173
23/02/2021 14:30 9.2 64 513.1 600 0.0 18.9 68.0 176
23/02/2021 14:40 9.2 64 486.5 600 0.0 18.3 65.7 174
23/02/2021 14:50 9.3 64 464.1 600 0.0 18.2 65.6 177
23/02/2021 15:00 9.3 63 439.2 600 0.0 18.1 65.1 179
23/02/2021 15:10 9.3 62 412.5 600 0.0 16.2 58.3 181
23/02/2021 15:20 9.4 62 385.3 600 0.0 17.0 61.2 179
23/02/2021 15:30 9.5 61 357.6 600 0.0 15.0 54.1 179
23/02/2021 15:40 9.6 63 326.5 600 0.0 13.6 48.8 175
23/02/2021 15:50 9.4 63 298.4 600 0.0 14.0 50.4 179
23/02/2021 16:00 9.5 63 268.6 600 0.0 13.7 49.2 174
23/02/2021 16:10 9.4 64 238.9 600 0.0 12.4 44.6 180
23/02/2021 16:20 9.4 64 207.7 600 0.0 12.2 44.0 185
23/02/2021 16:30 9.3 64 175.7 600 0.0 13.2 47.6 179
23/02/2021 16:40 9.2 64 149.2 600 0.0 12.8 46.0 182
23/02/2021 16:50 9.1 64 124.1 600 0.0 12.7 45.8 185
23/02/2021 17:00 9.0 64 99.1 600 0.0 13.0 46.7 185
23/02/2021 17:10 8.9 63 75.1 600 0.0 13.6 49.0 182
23/02/2021 17:20 8.8 64 51.3 600 0.0 13.5 48.6 183
23/02/2021 17:30 8.7 63 32.5 408 0.0 14.3 51.3 186
23/02/2021 17:40 8.7 63 21.1 0 0.0 13.4 48.3 186
23/02/2021 17:50 8.7 63 2.5 0 0.0 14.2 51.2 185
23/02/2021 18:00 8.5 64 0.0 0 0.0 12.8 46.2 183
23/02/2021 18:10 8.5 63 0.0 0 0.0 14.0 50.3 183
23/02/2021 18:20 8.5 63 0.0 0 0.0 13.7 49.3 181
23/02/2021 18:30 8.4 64 0.0 0 0.0 15.1 54.3 184
23/02/2021 18:40 8.3 64 0.0 0 0.0 15.4 55.4 186
23/02/2021 18:50 8.4 65 0.0 0 0.0 14.8 53.1 185
23/02/2021 19:00 8.2 66 0.0 0 0.0 15.5 55.9 182
23/02/2021 19:10 8.3 67 0.0 0 0.0 16.8 60.6 182
23/02/2021 19:20 8.2 68 0.0 0 0.0 17.0 61.3 182
23/02/2021 19:30 8.2 68 0.0 0 0.0 16.8 60.4 182
23/02/2021 19:40 8.2 68 0.0 0 0.0 16.3 58.8 182
23/02/2021 19:50 8.2 68 0.0 0 0.0 17.8 63.9 183
23/02/2021 20:00 8.3 68 0.0 0 0.0 18.5 66.6 183
23/02/2021 20:10 8.2 67 0.0 0 0.0 18.2 65.4 183
23/02/2021 20:20 8.3 65 0.0 0 0.0 17.7 63.8 182
23/02/2021 20:30 8.1 67 0.0 0 0.0 15.7 56.7 183
23/02/2021 20:40 8.1 68 0.0 0 0.0 17.3 62.4 183
23/02/2021 20:50 8.2 68 0.0 0 0.0 17.6 63.4 185
23/02/2021 21:00 8.2 69 0.0 0 0.0 16.6 59.6 182
23/02/2021 21:10 8.1 70 0.0 0 0.0 16.4 59.1 183
23/02/2021 21:20 8.0 71 0.0 0 0.0 16.2 58.4 183
23/02/2021 21:30 8.0 73 0.0 0 0.0 16.1 57.9 182
23/02/2021 21:40 7.8 75 0.0 0 0.0 15.6 56.3 181
23/02/2021 21:50 7.8 75 0.0 0 0.0 15.1 54.5 182
23/02/2021 22:00 7.9 75 0.0 0 0.0 15.3 55.1 187
23/02/2021 22:10 7.9 75 0.0 0 0.0 14.9 53.5 185
23/02/2021 22:20 7.8 77 0.0 0 0.0 15.4 55.6 186
23/02/2021 22:30 7.9 77 0.0 0 0.0 15.3 54.9 186
23/02/2021 22:40 7.8 78 0.0 0 0.0 14.1 50.9 186
23/02/2021 22:50 7.9 78 0.0 0 0.0 15.1 54.3 181
23/02/2021 23:00 8.0 76 0.0 0 0.0 16.8 60.6 179
23/02/2021 23:10 8.5 72 0.0 0 0.0 19.8 71.4 179
23/02/2021 23:20 8.4 73 0.0 0 0.0 19.7 71.0 176
23/02/2021 23:30 8.5 71 0.0 0 0.0 23.1 83.1 176
23/02/2021 23:40 8.5 71 0.0 0 0.0 21.6 77.9 177
23/02/2021 23:50 8.6 71 0.0 0 0.0 22.6 81.3 178
Anterior Página 1 de 1 Siguiente
Los datos de precipitación registrados en estaciones que están en cumbres son inferiores a lo real, como consecuencia del efecto del viento y de la nieve.


NOTA: Tipo de datos según el color:
   - Valores diarios o 10 minutos correctos
   - Valores diarios calculados a partir de un número de datos 10 minutos menor que 144 y mayor que 120, o de un número de datos semihorarios menor que 48 y mayor que 40 (caso de las estaciones de INTIA Y Ministerio)
   - Valores diez minutos estimados


Contacto        Enlaces        Aviso legal